sensor_id;sensor_type;location;lat;lon;timestamp;P1;durP1;ratioP1;P2;durP2;ratioP2
16878;SDS011;8556;52.218;9.884;2022-12-24T00:01:29;15.50;;;8.40;;
16878;SDS011;8556;52.218;9.884;2022-12-24T00:03:55;14.23;;;8.27;;
16878;SDS011;8556;52.218;9.884;2022-12-24T00:06:22;15.67;;;9.13;;
16878;SDS011;8556;52.218;9.884;2022-12-24T00:08:49;25.20;;;9.13;;
16878;SDS011;8556;52.218;9.884;2022-12-24T00:11:18;22.70;;;8.20;;
16878;SDS011;8556;52.218;9.884;2022-12-24T00:13:45;17.33;;;9.00;;
16878;SDS011;8556;52.218;9.884;2022-12-24T00:16:12;17.20;;;9.13;;
16878;SDS011;8556;52.218;9.884;2022-12-24T00:18:39;16.40;;;8.93;;
16878;SDS011;8556;52.218;9.884;2022-12-24T00:21:06;18.50;;;9.23;;
16878;SDS011;8556;52.218;9.884;2022-12-24T00:23:33;15.90;;;8.67;;
16878;SDS011;8556;52.218;9.884;2022-12-24T00:26:00;15.87;;;8.23;;
16878;SDS011;8556;52.218;9.884;2022-12-24T00:28:28;15.47;;;8.00;;
16878;SDS011;8556;52.218;9.884;2022-12-24T00:30:54;17.13;;;8.70;;
16878;SDS011;8556;52.218;9.884;2022-12-24T00:33:21;16.40;;;7.90;;
16878;SDS011;8556;52.218;9.884;2022-12-24T00:35:48;17.03;;;7.57;;
16878;SDS011;8556;52.218;9.884;2022-12-24T00:38:16;14.43;;;7.67;;
16878;SDS011;8556;52.218;9.884;2022-12-24T00:40:43;16.37;;;8.53;;
16878;SDS011;8556;52.218;9.884;2022-12-24T00:43:10;14.47;;;7.73;;
16878;SDS011;8556;52.218;9.884;2022-12-24T00:45:38;14.07;;;7.73;;
16878;SDS011;8556;52.218;9.884;2022-12-24T00:48:05;15.30;;;8.57;;
16878;SDS011;8556;52.218;9.884;2022-12-24T00:50:32;13.23;;;7.10;;
16878;SDS011;8556;52.218;9.884;2022-12-24T00:52:58;15.20;;;7.40;;
16878;SDS011;8556;52.218;9.884;2022-12-24T00:55:25;15.33;;;7.37;;
16878;SDS011;8556;52.218;9.884;2022-12-24T00:57:52;14.43;;;7.53;;
16878;SDS011;8556;52.218;9.884;2022-12-24T01:00:19;14.03;;;7.53;;
16878;SDS011;8556;52.218;9.884;2022-12-24T01:02:47;12.83;;;7.30;;
16878;SDS011;8556;52.218;9.884;2022-12-24T01:05:14;14.77;;;7.90;;
16878;SDS011;8556;52.218;9.884;2022-12-24T01:07:44;17.27;;;8.30;;
16878;SDS011;8556;52.218;9.884;2022-12-24T01:10:11;13.97;;;7.60;;
16878;SDS011;8556;52.218;9.884;2022-12-24T01:12:40;16.50;;;9.00;;
16878;SDS011;8556;52.218;9.884;2022-12-24T01:15:08;13.10;;;7.13;;
16878;SDS011;8556;52.218;9.884;2022-12-24T01:17:35;15.00;;;8.00;;
16878;SDS011;8556;52.218;9.884;2022-12-24T01:20:04;15.10;;;7.97;;
16878;SDS011;8556;52.218;9.884;2022-12-24T01:22:34;14.30;;;7.40;;
16878;SDS011;8556;52.218;9.884;2022-12-24T01:25:01;15.27;;;8.13;;
16878;SDS011;8556;52.218;9.884;2022-12-24T01:27:29;15.30;;;7.80;;
16878;SDS011;8556;52.218;9.884;2022-12-24T01:29:57;13.93;;;7.63;;
16878;SDS011;8556;52.218;9.884;2022-12-24T01:32:23;12.70;;;7.17;;
16878;SDS011;8556;52.218;9.884;2022-12-24T01:34:50;16.60;;;8.83;;
16878;SDS011;8556;52.218;9.884;2022-12-24T01:37:18;13.77;;;8.10;;
16878;SDS011;8556;52.218;9.884;2022-12-24T01:39:45;16.07;;;7.63;;
16878;SDS011;8556;52.218;9.884;2022-12-24T01:42:15;14.83;;;8.20;;
16878;SDS011;8556;52.218;9.884;2022-12-24T01:48:06;15.07;;;8.47;;
16878;SDS011;8556;52.218;9.884;2022-12-24T01:50:52;15.43;;;7.70;;
16878;SDS011;8556;52.218;9.884;2022-12-24T01:53:24;13.10;;;7.27;;
16878;SDS011;8556;52.218;9.884;2022-12-24T01:55:51;17.57;;;8.47;;
16878;SDS011;8556;52.218;9.884;2022-12-24T01:58:20;17.80;;;8.37;;
16878;SDS011;8556;52.218;9.884;2022-12-24T02:00:48;14.43;;;7.93;;
16878;SDS011;8556;52.218;9.884;2022-12-24T02:03:15;14.90;;;8.50;;
16878;SDS011;8556;52.218;9.884;2022-12-24T02:05:45;14.80;;;7.97;;
16878;SDS011;8556;52.218;9.884;2022-12-24T02:08:13;13.07;;;7.23;;
16878;SDS011;8556;52.218;9.884;2022-12-24T02:10:42;14.17;;;6.47;;
16878;SDS011;8556;52.218;9.884;2022-12-24T02:13:11;11.97;;;6.60;;
16878;SDS011;8556;52.218;9.884;2022-12-24T02:15:42;10.57;;;5.57;;
16878;SDS011;8556;52.218;9.884;2022-12-24T02:18:19;13.67;;;5.73;;
16878;SDS011;8556;52.218;9.884;2022-12-24T02:20:57;11.67;;;4.87;;
16878;SDS011;8556;52.218;9.884;2022-12-24T02:24:06;8.20;;;3.70;;
16878;SDS011;8556;52.218;9.884;2022-12-24T02:29:55;7.80;;;3.00;;
16878;SDS011;8556;52.218;9.884;2022-12-24T02:35:28;5.97;;;3.07;;
16878;SDS011;8556;52.218;9.884;2022-12-24T02:38:04;7.23;;;2.87;;
16878;SDS011;8556;52.218;9.884;2022-12-24T02:40:37;6.77;;;2.80;;
16878;SDS011;8556;52.218;9.884;2022-12-24T02:43:09;9.53;;;2.80;;
16878;SDS011;8556;52.218;9.884;2022-12-24T02:45:41;8.87;;;2.70;;
16878;SDS011;8556;52.218;9.884;2022-12-24T02:48:11;8.53;;;2.93;;
16878;SDS011;8556;52.218;9.884;2022-12-24T02:50:52;6.60;;;3.07;;
16878;SDS011;8556;52.218;9.884;2022-12-24T02:53:20;12.37;;;3.00;;
16878;SDS011;8556;52.218;9.884;2022-12-24T02:55:48;10.40;;;2.70;;
16878;SDS011;8556;52.218;9.884;2022-12-24T02:58:26;6.43;;;2.77;;
16878;SDS011;8556;52.218;9.884;2022-12-24T03:01:07;8.37;;;3.03;;
16878;SDS011;8556;52.218;9.884;2022-12-24T03:03:47;8.43;;;2.70;;
16878;SDS011;8556;52.218;9.884;2022-12-24T03:06:22;5.70;;;2.77;;
16878;SDS011;8556;52.218;9.884;2022-12-24T03:08:57;7.27;;;2.40;;
16878;SDS011;8556;52.218;9.884;2022-12-24T03:11:28;10.07;;;2.70;;
16878;SDS011;8556;52.218;9.884;2022-12-24T03:13:55;9.67;;;3.00;;
16878;SDS011;8556;52.218;9.884;2022-12-24T03:16:26;12.37;;;2.97;;
16878;SDS011;8556;52.218;9.884;2022-12-24T03:18:53;8.33;;;2.63;;
16878;SDS011;8556;52.218;9.884;2022-12-24T03:21:23;6.87;;;2.40;;
16878;SDS011;8556;52.218;9.884;2022-12-24T03:23:54;4.73;;;2.00;;
16878;SDS011;8556;52.218;9.884;2022-12-24T03:26:21;6.83;;;2.00;;
16878;SDS011;8556;52.218;9.884;2022-12-24T03:28:50;6.97;;;2.50;;
16878;SDS011;8556;52.218;9.884;2022-12-24T03:31:17;9.77;;;2.40;;
16878;SDS011;8556;52.218;9.884;2022-12-24T03:33:45;5.13;;;1.90;;
16878;SDS011;8556;52.218;9.884;2022-12-24T03:36:12;12.70;;;3.07;;
16878;SDS011;8556;52.218;9.884;2022-12-24T03:38:39;7.93;;;2.77;;
16878;SDS011;8556;52.218;9.884;2022-12-24T03:41:06;11.57;;;3.20;;
16878;SDS011;8556;52.218;9.884;2022-12-24T03:43:34;8.70;;;2.70;;
16878;SDS011;8556;52.218;9.884;2022-12-24T03:46:02;10.57;;;2.60;;
16878;SDS011;8556;52.218;9.884;2022-12-24T03:48:36;7.27;;;2.47;;
16878;SDS011;8556;52.218;9.884;2022-12-24T03:51:14;17.80;;;3.57;;
16878;SDS011;8556;52.218;9.884;2022-12-24T03:53:42;14.67;;;3.20;;
16878;SDS011;8556;52.218;9.884;2022-12-24T03:56:09;11.57;;;3.27;;
16878;SDS011;8556;52.218;9.884;2022-12-24T03:58:36;13.40;;;3.20;;
16878;SDS011;8556;52.218;9.884;2022-12-24T04:01:03;16.17;;;3.37;;
16878;SDS011;8556;52.218;9.884;2022-12-24T04:03:30;6.73;;;2.40;;
16878;SDS011;8556;52.218;9.884;2022-12-24T04:06:00;14.63;;;3.23;;
16878;SDS011;8556;52.218;9.884;2022-12-24T04:08:29;9.60;;;2.43;;
16878;SDS011;8556;52.218;9.884;2022-12-24T04:10:56;11.27;;;3.27;;
16878;SDS011;8556;52.218;9.884;2022-12-24T04:13:23;11.33;;;3.03;;
16878;SDS011;8556;52.218;9.884;2022-12-24T04:15:55;14.47;;;3.80;;
16878;SDS011;8556;52.218;9.884;2022-12-24T04:18:23;10.80;;;3.13;;
16878;SDS011;8556;52.218;9.884;2022-12-24T04:20:50;13.27;;;3.40;;
16878;SDS011;8556;52.218;9.884;2022-12-24T04:23:17;9.40;;;3.00;;
16878;SDS011;8556;52.218;9.884;2022-12-24T04:25:45;15.33;;;3.70;;
16878;SDS011;8556;52.218;9.884;2022-12-24T04:28:12;11.37;;;3.43;;
16878;SDS011;8556;52.218;9.884;2022-12-24T04:30:39;13.70;;;3.83;;
16878;SDS011;8556;52.218;9.884;2022-12-24T04:33:07;13.67;;;4.37;;
16878;SDS011;8556;52.218;9.884;2022-12-24T04:35:37;11.07;;;3.10;;
16878;SDS011;8556;52.218;9.884;2022-12-24T04:38:05;12.77;;;4.00;;
16878;SDS011;8556;52.218;9.884;2022-12-24T04:40:32;14.40;;;2.93;;
16878;SDS011;8556;52.218;9.884;2022-12-24T04:43:00;11.77;;;2.90;;
16878;SDS011;8556;52.218;9.884;2022-12-24T04:45:27;7.93;;;2.63;;
16878;SDS011;8556;52.218;9.884;2022-12-24T04:47:53;11.53;;;3.47;;
16878;SDS011;8556;52.218;9.884;2022-12-24T04:50:20;12.30;;;3.87;;
16878;SDS011;8556;52.218;9.884;2022-12-24T04:52:47;17.33;;;3.17;;
16878;SDS011;8556;52.218;9.884;2022-12-24T04:55:14;13.30;;;2.97;;
16878;SDS011;8556;52.218;9.884;2022-12-24T04:57:41;8.97;;;2.83;;
16878;SDS011;8556;52.218;9.884;2022-12-24T05:00:09;7.53;;;2.57;;
16878;SDS011;8556;52.218;9.884;2022-12-24T05:02:37;15.70;;;3.07;;
16878;SDS011;8556;52.218;9.884;2022-12-24T05:05:04;11.43;;;3.40;;
16878;SDS011;8556;52.218;9.884;2022-12-24T05:07:32;10.27;;;3.43;;
16878;SDS011;8556;52.218;9.884;2022-12-24T05:09:59;11.23;;;3.13;;
16878;SDS011;8556;52.218;9.884;2022-12-24T05:12:26;10.40;;;2.70;;
16878;SDS011;8556;52.218;9.884;2022-12-24T05:14:53;9.83;;;3.27;;
16878;SDS011;8556;52.218;9.884;2022-12-24T05:17:21;9.53;;;3.07;;
16878;SDS011;8556;52.218;9.884;2022-12-24T05:19:47;13.57;;;3.00;;
16878;SDS011;8556;52.218;9.884;2022-12-24T05:22:14;10.30;;;3.03;;
16878;SDS011;8556;52.218;9.884;2022-12-24T05:24:59;14.60;;;3.13;;
16878;SDS011;8556;52.218;9.884;2022-12-24T05:27:43;12.30;;;3.37;;
16878;SDS011;8556;52.218;9.884;2022-12-24T05:30:10;10.27;;;3.00;;
16878;SDS011;8556;52.218;9.884;2022-12-24T05:32:39;15.73;;;3.10;;
16878;SDS011;8556;52.218;9.884;2022-12-24T05:35:06;13.77;;;3.13;;
16878;SDS011;8556;52.218;9.884;2022-12-24T05:37:33;12.47;;;3.10;;
16878;SDS011;8556;52.218;9.884;2022-12-24T05:40:00;9.80;;;3.90;;
16878;SDS011;8556;52.218;9.884;2022-12-24T05:42:26;20.47;;;4.63;;
16878;SDS011;8556;52.218;9.884;2022-12-24T05:44:53;12.77;;;3.63;;
16878;SDS011;8556;52.218;9.884;2022-12-24T05:47:20;17.00;;;3.90;;
16878;SDS011;8556;52.218;9.884;2022-12-24T05:49:48;17.27;;;3.90;;
16878;SDS011;8556;52.218;9.884;2022-12-24T05:52:15;13.57;;;4.17;;
16878;SDS011;8556;52.218;9.884;2022-12-24T05:54:44;13.80;;;4.37;;
16878;SDS011;8556;52.218;9.884;2022-12-24T05:57:11;13.80;;;4.23;;
16878;SDS011;8556;52.218;9.884;2022-12-24T05:59:38;14.03;;;3.73;;
16878;SDS011;8556;52.218;9.884;2022-12-24T06:02:05;13.13;;;4.43;;
16878;SDS011;8556;52.218;9.884;2022-12-24T06:04:31;15.73;;;4.50;;
16878;SDS011;8556;52.218;9.884;2022-12-24T06:07:00;23.20;;;5.40;;
16878;SDS011;8556;52.218;9.884;2022-12-24T06:09:26;23.37;;;7.07;;
16878;SDS011;8556;52.218;9.884;2022-12-24T06:11:53;19.90;;;4.97;;
16878;SDS011;8556;52.218;9.884;2022-12-24T06:14:20;19.13;;;5.53;;
16878;SDS011;8556;52.218;9.884;2022-12-24T06:16:47;19.43;;;5.80;;
16878;SDS011;8556;52.218;9.884;2022-12-24T06:19:13;17.70;;;4.70;;
16878;SDS011;8556;52.218;9.884;2022-12-24T06:21:40;15.43;;;4.87;;
16878;SDS011;8556;52.218;9.884;2022-12-24T06:24:08;22.20;;;4.97;;
16878;SDS011;8556;52.218;9.884;2022-12-24T06:26:35;20.57;;;5.53;;
16878;SDS011;8556;52.218;9.884;2022-12-24T06:29:02;18.10;;;6.30;;
16878;SDS011;8556;52.218;9.884;2022-12-24T06:31:28;20.43;;;5.97;;
16878;SDS011;8556;52.218;9.884;2022-12-24T06:33:55;19.07;;;5.10;;
16878;SDS011;8556;52.218;9.884;2022-12-24T06:36:23;18.23;;;4.70;;
16878;SDS011;8556;52.218;9.884;2022-12-24T06:38:51;18.87;;;5.97;;
16878;SDS011;8556;52.218;9.884;2022-12-24T06:41:20;25.40;;;5.53;;
16878;SDS011;8556;52.218;9.884;2022-12-24T06:43:48;18.27;;;5.17;;
16878;SDS011;8556;52.218;9.884;2022-12-24T06:46:16;19.43;;;5.10;;
16878;SDS011;8556;52.218;9.884;2022-12-24T06:48:43;24.20;;;6.27;;
16878;SDS011;8556;52.218;9.884;2022-12-24T06:51:11;18.20;;;5.13;;
16878;SDS011;8556;52.218;9.884;2022-12-24T06:53:38;21.37;;;5.17;;
16878;SDS011;8556;52.218;9.884;2022-12-24T06:56:06;18.73;;;6.33;;
16878;SDS011;8556;52.218;9.884;2022-12-24T06:58:35;20.80;;;5.03;;
16878;SDS011;8556;52.218;9.884;2022-12-24T07:01:03;20.27;;;5.00;;
16878;SDS011;8556;52.218;9.884;2022-12-24T07:03:31;16.10;;;5.73;;
16878;SDS011;8556;52.218;9.884;2022-12-24T07:05:58;19.47;;;4.87;;
16878;SDS011;8556;52.218;9.884;2022-12-24T07:08:25;21.00;;;5.93;;
16878;SDS011;8556;52.218;9.884;2022-12-24T07:10:52;19.77;;;4.90;;
16878;SDS011;8556;52.218;9.884;2022-12-24T07:13:19;22.50;;;5.87;;
16878;SDS011;8556;52.218;9.884;2022-12-24T07:15:55;19.67;;;5.27;;
16878;SDS011;8556;52.218;9.884;2022-12-24T07:18:22;21.77;;;6.67;;
16878;SDS011;8556;52.218;9.884;2022-12-24T07:20:49;15.70;;;4.67;;
16878;SDS011;8556;52.218;9.884;2022-12-24T07:23:15;18.90;;;5.10;;
16878;SDS011;8556;52.218;9.884;2022-12-24T07:25:42;17.13;;;5.20;;
16878;SDS011;8556;52.218;9.884;2022-12-24T07:28:09;16.87;;;5.23;;
16878;SDS011;8556;52.218;9.884;2022-12-24T07:30:36;18.77;;;5.63;;
16878;SDS011;8556;52.218;9.884;2022-12-24T07:33:04;23.10;;;4.93;;
16878;SDS011;8556;52.218;9.884;2022-12-24T07:35:31;21.67;;;5.87;;
16878;SDS011;8556;52.218;9.884;2022-12-24T07:37:57;17.33;;;5.00;;
16878;SDS011;8556;52.218;9.884;2022-12-24T07:40:24;22.80;;;5.40;;
16878;SDS011;8556;52.218;9.884;2022-12-24T07:42:51;19.90;;;4.70;;
16878;SDS011;8556;52.218;9.884;2022-12-24T07:45:18;15.30;;;4.33;;
16878;SDS011;8556;52.218;9.884;2022-12-24T07:47:45;17.83;;;5.13;;
16878;SDS011;8556;52.218;9.884;2022-12-24T07:50:13;20.90;;;4.63;;
16878;SDS011;8556;52.218;9.884;2022-12-24T07:52:40;20.00;;;5.37;;
16878;SDS011;8556;52.218;9.884;2022-12-24T07:55:07;20.97;;;6.30;;
16878;SDS011;8556;52.218;9.884;2022-12-24T07:57:34;15.60;;;4.57;;
16878;SDS011;8556;52.218;9.884;2022-12-24T08:00:00;16.90;;;4.83;;
16878;SDS011;8556;52.218;9.884;2022-12-24T08:02:27;16.20;;;4.93;;
16878;SDS011;8556;52.218;9.884;2022-12-24T08:04:55;15.47;;;4.70;;
16878;SDS011;8556;52.218;9.884;2022-12-24T08:07:23;18.13;;;5.00;;
16878;SDS011;8556;52.218;9.884;2022-12-24T08:09:50;25.93;;;5.47;;
16878;SDS011;8556;52.218;9.884;2022-12-24T08:12:16;18.57;;;5.60;;
16878;SDS011;8556;52.218;9.884;2022-12-24T08:14:43;15.27;;;5.53;;
16878;SDS011;8556;52.218;9.884;2022-12-24T08:17:10;25.13;;;6.47;;
16878;SDS011;8556;52.218;9.884;2022-12-24T08:19:37;15.47;;;5.97;;
16878;SDS011;8556;52.218;9.884;2022-12-24T08:22:03;18.13;;;4.90;;
16878;SDS011;8556;52.218;9.884;2022-12-24T08:24:32;18.80;;;6.67;;
16878;SDS011;8556;52.218;9.884;2022-12-24T08:26:58;22.60;;;6.13;;
16878;SDS011;8556;52.218;9.884;2022-12-24T08:29:25;18.70;;;5.63;;
16878;SDS011;8556;52.218;9.884;2022-12-24T08:31:52;19.13;;;5.30;;
16878;SDS011;8556;52.218;9.884;2022-12-24T08:34:19;24.13;;;6.10;;
16878;SDS011;8556;52.218;9.884;2022-12-24T08:36:46;18.23;;;5.50;;
16878;SDS011;8556;52.218;9.884;2022-12-24T08:39:12;24.33;;;6.47;;
16878;SDS011;8556;52.218;9.884;2022-12-24T08:41:41;19.00;;;5.90;;
16878;SDS011;8556;52.218;9.884;2022-12-24T08:44:07;16.17;;;5.17;;
16878;SDS011;8556;52.218;9.884;2022-12-24T08:46:34;21.77;;;8.20;;
16878;SDS011;8556;52.218;9.884;2022-12-24T08:49:02;23.63;;;6.43;;
16878;SDS011;8556;52.218;9.884;2022-12-24T08:51:28;20.83;;;6.13;;
16878;SDS011;8556;52.218;9.884;2022-12-24T08:53:55;16.90;;;5.60;;
16878;SDS011;8556;52.218;9.884;2022-12-24T08:56:22;20.87;;;6.40;;
16878;SDS011;8556;52.218;9.884;2022-12-24T08:58:50;18.43;;;6.03;;
16878;SDS011;8556;52.218;9.884;2022-12-24T09:01:18;25.23;;;6.50;;
16878;SDS011;8556;52.218;9.884;2022-12-24T09:03:45;24.23;;;6.30;;
16878;SDS011;8556;52.218;9.884;2022-12-24T09:06:12;21.07;;;6.13;;
16878;SDS011;8556;52.218;9.884;2022-12-24T09:08:39;21.40;;;7.37;;
16878;SDS011;8556;52.218;9.884;2022-12-24T09:11:07;18.70;;;7.40;;
16878;SDS011;8556;52.218;9.884;2022-12-24T09:13:37;21.47;;;7.47;;
16878;SDS011;8556;52.218;9.884;2022-12-24T09:16:05;21.43;;;7.27;;
16878;SDS011;8556;52.218;9.884;2022-12-24T09:18:33;25.40;;;6.90;;
16878;SDS011;8556;52.218;9.884;2022-12-24T09:21:00;27.20;;;7.43;;
16878;SDS011;8556;52.218;9.884;2022-12-24T09:23:28;23.60;;;7.60;;
16878;SDS011;8556;52.218;9.884;2022-12-24T09:25:56;24.27;;;7.67;;
16878;SDS011;8556;52.218;9.884;2022-12-24T09:28:23;18.80;;;6.70;;
16878;SDS011;8556;52.218;9.884;2022-12-24T09:30:54;28.67;;;7.03;;
16878;SDS011;8556;52.218;9.884;2022-12-24T09:33:25;20.13;;;7.03;;
16878;SDS011;8556;52.218;9.884;2022-12-24T09:35:53;16.90;;;6.67;;
16878;SDS011;8556;52.218;9.884;2022-12-24T09:38:20;21.93;;;6.80;;
16878;SDS011;8556;52.218;9.884;2022-12-24T09:40:47;22.83;;;7.23;;
16878;SDS011;8556;52.218;9.884;2022-12-24T09:43:16;16.40;;;6.40;;
16878;SDS011;8556;52.218;9.884;2022-12-24T09:45:45;24.00;;;7.70;;
16878;SDS011;8556;52.218;9.884;2022-12-24T09:48:20;21.87;;;8.07;;
16878;SDS011;8556;52.218;9.884;2022-12-24T09:50:52;17.97;;;6.90;;
16878;SDS011;8556;52.218;9.884;2022-12-24T09:53:23;18.43;;;6.87;;
16878;SDS011;8556;52.218;9.884;2022-12-24T09:55:56;18.17;;;6.23;;
16878;SDS011;8556;52.218;9.884;2022-12-24T09:58:26;17.97;;;6.57;;
16878;SDS011;8556;52.218;9.884;2022-12-24T10:00:55;21.67;;;6.83;;
16878;SDS011;8556;52.218;9.884;2022-12-24T10:03:22;22.93;;;7.73;;
16878;SDS011;8556;52.218;9.884;2022-12-24T10:05:55;24.37;;;7.73;;
16878;SDS011;8556;52.218;9.884;2022-12-24T10:08:34;26.27;;;8.87;;
16878;SDS011;8556;52.218;9.884;2022-12-24T10:11:12;21.00;;;7.57;;
16878;SDS011;8556;52.218;9.884;2022-12-24T10:13:51;17.97;;;5.87;;
16878;SDS011;8556;52.218;9.884;2022-12-24T10:16:31;16.93;;;7.10;;
16878;SDS011;8556;52.218;9.884;2022-12-24T10:19:09;15.93;;;6.07;;
16878;SDS011;8556;52.218;9.884;2022-12-24T10:21:44;20.93;;;7.30;;
16878;SDS011;8556;52.218;9.884;2022-12-24T10:24:23;29.97;;;7.90;;
16878;SDS011;8556;52.218;9.884;2022-12-24T10:26:56;16.83;;;7.07;;
16878;SDS011;8556;52.218;9.884;2022-12-24T10:29:28;18.40;;;7.80;;
16878;SDS011;8556;52.218;9.884;2022-12-24T10:31:58;17.13;;;6.73;;
16878;SDS011;8556;52.218;9.884;2022-12-24T10:34:31;19.83;;;7.30;;
16878;SDS011;8556;52.218;9.884;2022-12-24T10:37:02;16.53;;;7.00;;
16878;SDS011;8556;52.218;9.884;2022-12-24T10:39:29;17.80;;;7.73;;
16878;SDS011;8556;52.218;9.884;2022-12-24T10:41:57;17.00;;;8.80;;
16878;SDS011;8556;52.218;9.884;2022-12-24T10:44:26;15.37;;;7.00;;
16878;SDS011;8556;52.218;9.884;2022-12-24T10:46:57;14.97;;;6.50;;
16878;SDS011;8556;52.218;9.884;2022-12-24T10:49:27;17.83;;;7.37;;
16878;SDS011;8556;52.218;9.884;2022-12-24T10:51:59;14.63;;;6.30;;
16878;SDS011;8556;52.218;9.884;2022-12-24T10:54:31;14.70;;;6.40;;
16878;SDS011;8556;52.218;9.884;2022-12-24T10:57:03;16.10;;;6.30;;
16878;SDS011;8556;52.218;9.884;2022-12-24T10:59:33;12.27;;;5.80;;
16878;SDS011;8556;52.218;9.884;2022-12-24T11:02:23;12.73;;;5.67;;
16878;SDS011;8556;52.218;9.884;2022-12-24T11:04:52;17.30;;;6.10;;
16878;SDS011;8556;52.218;9.884;2022-12-24T11:07:21;13.90;;;6.03;;
16878;SDS011;8556;52.218;9.884;2022-12-24T11:09:53;19.03;;;6.23;;
16878;SDS011;8556;52.218;9.884;2022-12-24T11:12:22;12.77;;;5.87;;
16878;SDS011;8556;52.218;9.884;2022-12-24T11:14:58;18.57;;;6.53;;
16878;SDS011;8556;52.218;9.884;2022-12-24T11:17:27;10.80;;;5.70;;
16878;SDS011;8556;52.218;9.884;2022-12-24T11:19:54;12.60;;;5.53;;
16878;SDS011;8556;52.218;9.884;2022-12-24T11:22:23;14.30;;;6.10;;
16878;SDS011;8556;52.218;9.884;2022-12-24T11:24:59;14.37;;;7.50;;
16878;SDS011;8556;52.218;9.884;2022-12-24T11:27:33;14.40;;;7.03;;
16878;SDS011;8556;52.218;9.884;2022-12-24T11:30:20;13.07;;;5.80;;
16878;SDS011;8556;52.218;9.884;2022-12-24T11:32:48;13.97;;;5.47;;
16878;SDS011;8556;52.218;9.884;2022-12-24T11:35:38;13.20;;;5.87;;
16878;SDS011;8556;52.218;9.884;2022-12-24T11:38:10;13.83;;;6.17;;
16878;SDS011;8556;52.218;9.884;2022-12-24T11:40:42;14.73;;;5.43;;
16878;SDS011;8556;52.218;9.884;2022-12-24T11:43:12;13.20;;;5.40;;
16878;SDS011;8556;52.218;9.884;2022-12-24T11:45:46;12.90;;;5.60;;
16878;SDS011;8556;52.218;9.884;2022-12-24T11:48:24;15.23;;;5.60;;
16878;SDS011;8556;52.218;9.884;2022-12-24T11:50:55;11.13;;;4.07;;
16878;SDS011;8556;52.218;9.884;2022-12-24T11:53:25;8.27;;;4.07;;
16878;SDS011;8556;52.218;9.884;2022-12-24T11:55:58;4.67;;;2.67;;
16878;SDS011;8556;52.218;9.884;2022-12-24T11:58:26;6.13;;;2.27;;
16878;SDS011;8556;52.218;9.884;2022-12-24T12:00:59;5.47;;;3.03;;
16878;SDS011;8556;52.218;9.884;2022-12-24T12:03:31;3.37;;;2.00;;
16878;SDS011;8556;52.218;9.884;2022-12-24T12:06:01;6.27;;;2.40;;
16878;SDS011;8556;52.218;9.884;2022-12-24T12:08:33;6.87;;;2.77;;
16878;SDS011;8556;52.218;9.884;2022-12-24T12:11:01;6.37;;;2.93;;
16878;SDS011;8556;52.218;9.884;2022-12-24T12:13:35;5.53;;;2.00;;
16878;SDS011;8556;52.218;9.884;2022-12-24T12:16:09;5.97;;;2.17;;
16878;SDS011;8556;52.218;9.884;2022-12-24T12:18:45;3.40;;;1.90;;
16878;SDS011;8556;52.218;9.884;2022-12-24T12:21:15;4.43;;;2.00;;
16878;SDS011;8556;52.218;9.884;2022-12-24T12:23:46;4.13;;;1.87;;
16878;SDS011;8556;52.218;9.884;2022-12-24T12:26:17;3.90;;;1.53;;
16878;SDS011;8556;52.218;9.884;2022-12-24T12:28:49;1.87;;;1.60;;
16878;SDS011;8556;52.218;9.884;2022-12-24T12:31:21;4.47;;;2.13;;
16878;SDS011;8556;52.218;9.884;2022-12-24T12:33:50;4.43;;;1.90;;
16878;SDS011;8556;52.218;9.884;2022-12-24T12:36:22;3.73;;;1.70;;
16878;SDS011;8556;52.218;9.884;2022-12-24T12:38:54;4.93;;;1.80;;
16878;SDS011;8556;52.218;9.884;2022-12-24T12:41:27;3.27;;;1.67;;
16878;SDS011;8556;52.218;9.884;2022-12-24T12:44:25;5.77;;;2.13;;
16878;SDS011;8556;52.218;9.884;2022-12-24T12:47:12;3.37;;;1.83;;
16878;SDS011;8556;52.218;9.884;2022-12-24T12:50:05;3.50;;;2.17;;
16878;SDS011;8556;52.218;9.884;2022-12-24T12:55:46;6.23;;;2.60;;
16878;SDS011;8556;52.218;9.884;2022-12-24T12:58:22;6.47;;;3.43;;
16878;SDS011;8556;52.218;9.884;2022-12-24T13:00:54;4.87;;;2.93;;
16878;SDS011;8556;52.218;9.884;2022-12-24T13:03:34;4.47;;;2.73;;
16878;SDS011;8556;52.218;9.884;2022-12-24T13:06:40;6.50;;;3.40;;
16878;SDS011;8556;52.218;9.884;2022-12-24T13:09:31;10.90;;;3.70;;
16878;SDS011;8556;52.218;9.884;2022-12-24T13:12:18;10.03;;;4.90;;
16878;SDS011;8556;52.218;9.884;2022-12-24T13:15:01;17.70;;;6.17;;
16878;SDS011;8556;52.218;9.884;2022-12-24T13:17:48;16.47;;;6.37;;
16878;SDS011;8556;52.218;9.884;2022-12-24T13:20:35;18.13;;;6.33;;
16878;SDS011;8556;52.218;9.884;2022-12-24T13:23:10;18.37;;;6.17;;
16878;SDS011;8556;52.218;9.884;2022-12-24T13:25:40;18.57;;;6.83;;
16878;SDS011;8556;52.218;9.884;2022-12-24T13:28:14;18.40;;;7.60;;
16878;SDS011;8556;52.218;9.884;2022-12-24T13:30:42;21.50;;;7.30;;
16878;SDS011;8556;52.218;9.884;2022-12-24T13:33:10;19.80;;;7.90;;
16878;SDS011;8556;52.218;9.884;2022-12-24T13:38:34;21.03;;;6.80;;
16878;SDS011;8556;52.218;9.884;2022-12-24T13:44:23;17.50;;;6.73;;
16878;SDS011;8556;52.218;9.884;2022-12-24T13:46:57;21.80;;;7.20;;
16878;SDS011;8556;52.218;9.884;2022-12-24T13:49:31;14.57;;;6.67;;
16878;SDS011;8556;52.218;9.884;2022-12-24T13:52:13;22.20;;;6.90;;
16878;SDS011;8556;52.218;9.884;2022-12-24T13:55:12;22.53;;;7.40;;
16878;SDS011;8556;52.218;9.884;2022-12-24T13:57:42;17.67;;;6.93;;
16878;SDS011;8556;52.218;9.884;2022-12-24T14:03:19;15.40;;;6.43;;
16878;SDS011;8556;52.218;9.884;2022-12-24T14:05:51;17.80;;;6.30;;
16878;SDS011;8556;52.218;9.884;2022-12-24T14:08:27;18.67;;;6.33;;
16878;SDS011;8556;52.218;9.884;2022-12-24T14:11:06;17.03;;;6.70;;
16878;SDS011;8556;52.218;9.884;2022-12-24T14:13:52;19.43;;;7.00;;
16878;SDS011;8556;52.218;9.884;2022-12-24T14:16:41;20.07;;;7.40;;
16878;SDS011;8556;52.218;9.884;2022-12-24T14:19:18;17.87;;;6.53;;
16878;SDS011;8556;52.218;9.884;2022-12-24T14:21:52;14.70;;;6.10;;
16878;SDS011;8556;52.218;9.884;2022-12-24T14:24:22;21.87;;;6.90;;
16878;SDS011;8556;52.218;9.884;2022-12-24T14:26:53;14.80;;;6.00;;
16878;SDS011;8556;52.218;9.884;2022-12-24T14:29:24;23.77;;;7.37;;
16878;SDS011;8556;52.218;9.884;2022-12-24T14:31:55;17.70;;;5.50;;
16878;SDS011;8556;52.218;9.884;2022-12-24T14:34:23;18.27;;;5.60;;
16878;SDS011;8556;52.218;9.884;2022-12-24T14:36:51;14.67;;;6.23;;
16878;SDS011;8556;52.218;9.884;2022-12-24T14:39:21;20.80;;;6.93;;
16878;SDS011;8556;52.218;9.884;2022-12-24T14:41:52;19.87;;;7.13;;
16878;SDS011;8556;52.218;9.884;2022-12-24T14:44:30;17.77;;;6.03;;
16878;SDS011;8556;52.218;9.884;2022-12-24T14:47:11;22.33;;;7.17;;
16878;SDS011;8556;52.218;9.884;2022-12-24T14:49:51;21.60;;;7.47;;
16878;SDS011;8556;52.218;9.884;2022-12-24T14:52:51;22.43;;;8.13;;
16878;SDS011;8556;52.218;9.884;2022-12-24T14:55:30;23.63;;;9.87;;
16878;SDS011;8556;52.218;9.884;2022-12-24T14:58:18;18.10;;;8.27;;
16878;SDS011;8556;52.218;9.884;2022-12-24T15:00:50;20.13;;;7.93;;
16878;SDS011;8556;52.218;9.884;2022-12-24T15:03:21;23.43;;;7.57;;
16878;SDS011;8556;52.218;9.884;2022-12-24T15:05:49;21.97;;;8.13;;
16878;SDS011;8556;52.218;9.884;2022-12-24T15:08:26;21.67;;;7.63;;
16878;SDS011;8556;52.218;9.884;2022-12-24T15:10:58;17.93;;;8.03;;
16878;SDS011;8556;52.218;9.884;2022-12-24T15:13:29;22.43;;;9.10;;
16878;SDS011;8556;52.218;9.884;2022-12-24T15:15:59;18.77;;;8.07;;
16878;SDS011;8556;52.218;9.884;2022-12-24T15:18:29;20.20;;;8.17;;
16878;SDS011;8556;52.218;9.884;2022-12-24T15:20:59;20.60;;;8.53;;
16878;SDS011;8556;52.218;9.884;2022-12-24T15:23:28;23.47;;;7.57;;
16878;SDS011;8556;52.218;9.884;2022-12-24T15:26:19;22.07;;;7.00;;
16878;SDS011;8556;52.218;9.884;2022-12-24T15:28:49;15.83;;;6.37;;
16878;SDS011;8556;52.218;9.884;2022-12-24T15:31:16;22.60;;;6.27;;
16878;SDS011;8556;52.218;9.884;2022-12-24T15:33:47;19.33;;;6.57;;